sensor_id;sensor_type;location;lat;lon;timestamp;temperature;humidity
21353;DHT22;10834;52.268;6.770;2023-03-23T00:01:23;11.20;99.90
21353;DHT22;10834;52.268;6.770;2023-03-23T00:04:12;11.20;99.90
21353;DHT22;10834;52.268;6.770;2023-03-23T00:06:59;11.20;99.90
21353;DHT22;10834;52.268;6.770;2023-03-23T00:09:49;11.20;99.90
21353;DHT22;10834;52.268;6.770;2023-03-23T00:12:39;11.20;99.90
21353;DHT22;10834;52.268;6.770;2023-03-23T00:15:28;11.20;99.90
21353;DHT22;10834;52.268;6.770;2023-03-23T00:18:20;11.20;99.90
21353;DHT22;10834;52.268;6.770;2023-03-23T00:21:09;11.20;99.90
21353;DHT22;10834;52.268;6.770;2023-03-23T00:23:55;11.20;99.90
21353;DHT22;10834;52.268;6.770;2023-03-23T00:26:43;11.20;99.90
21353;DHT22;10834;52.268;6.770;2023-03-23T00:29:29;11.20;99.90
21353;DHT22;10834;52.268;6.770;2023-03-23T00:32:19;11.20;99.90
21353;DHT22;10834;52.268;6.770;2023-03-23T00:35:06;11.20;99.90
21353;DHT22;10834;52.268;6.770;2023-03-23T00:37:52;11.30;99.90
21353;DHT22;10834;52.268;6.770;2023-03-23T00:40:38;11.30;99.90
21353;DHT22;10834;52.268;6.770;2023-03-23T00:43:24;11.30;99.90
21353;DHT22;10834;52.268;6.770;2023-03-23T00:46:11;11.30;99.90
21353;DHT22;10834;52.268;6.770;2023-03-23T00:48:57;11.30;99.90
21353;DHT22;10834;52.268;6.770;2023-03-23T00:51:43;11.30;99.90
21353;DHT22;10834;52.268;6.770;2023-03-23T00:54:30;11.30;99.90
21353;DHT22;10834;52.268;6.770;2023-03-23T00:57:16;11.30;99.90
21353;DHT22;10834;52.268;6.770;2023-03-23T01:00:04;11.30;99.90
21353;DHT22;10834;52.268;6.770;2023-03-23T01:02:56;11.40;99.90
21353;DHT22;10834;52.268;6.770;2023-03-23T01:05:42;11.40;99.90
21353;DHT22;10834;52.268;6.770;2023-03-23T01:08:29;11.40;99.90
21353;DHT22;10834;52.268;6.770;2023-03-23T01:11:17;11.40;99.90
21353;DHT22;10834;52.268;6.770;2023-03-23T01:14:04;11.40;99.90
21353;DHT22;10834;52.268;6.770;2023-03-23T01:16:51;11.40;99.90
21353;DHT22;10834;52.268;6.770;2023-03-23T01:19:37;11.40;99.90
21353;DHT22;10834;52.268;6.770;2023-03-23T01:22:23;11.40;99.90
21353;DHT22;10834;52.268;6.770;2023-03-23T01:25:11;11.50;99.90
21353;DHT22;10834;52.268;6.770;2023-03-23T01:27:58;11.50;99.90
21353;DHT22;10834;52.268;6.770;2023-03-23T01:30:44;11.50;99.90
21353;DHT22;10834;52.268;6.770;2023-03-23T01:33:31;11.50;99.90
21353;DHT22;10834;52.268;6.770;2023-03-23T01:36:21;11.50;99.90
21353;DHT22;10834;52.268;6.770;2023-03-23T01:39:07;11.50;99.90
21353;DHT22;10834;52.268;6.770;2023-03-23T01:41:54;11.50;99.90
21353;DHT22;10834;52.268;6.770;2023-03-23T01:47:26;11.50;99.90
21353;DHT22;10834;52.268;6.770;2023-03-23T01:50:12;11.50;99.90
21353;DHT22;10834;52.268;6.770;2023-03-23T01:52:59;11.50;99.90
21353;DHT22;10834;52.268;6.770;2023-03-23T01:55:49;11.50;99.90
21353;DHT22;10834;52.268;6.770;2023-03-23T01:58:37;11.60;99.90
21353;DHT22;10834;52.268;6.770;2023-03-23T02:01:23;11.60;99.90
21353;DHT22;10834;52.268;6.770;2023-03-23T02:04:14;11.60;99.90
21353;DHT22;10834;52.268;6.770;2023-03-23T02:07:02;11.60;99.90
21353;DHT22;10834;52.268;6.770;2023-03-23T02:09:50;11.60;99.90
21353;DHT22;10834;52.268;6.770;2023-03-23T02:12:37;11.50;99.90
21353;DHT22;10834;52.268;6.770;2023-03-23T02:15:26;11.60;99.90
21353;DHT22;10834;52.268;6.770;2023-03-23T02:18:42;11.50;99.90
21353;DHT22;10834;52.268;6.770;2023-03-23T02:24:58;11.50;99.90
21353;DHT22;10834;52.268;6.770;2023-03-23T02:37:38;11.50;99.90
21353;DHT22;10834;52.268;6.770;2023-03-23T02:40:39;11.50;99.90
21353;DHT22;10834;52.268;6.770;2023-03-23T02:43:29;11.50;99.90
21353;DHT22;10834;52.268;6.770;2023-03-23T02:46:16;11.40;99.90
21353;DHT22;10834;52.268;6.770;2023-03-23T02:49:06;11.40;99.90
21353;DHT22;10834;52.268;6.770;2023-03-23T02:51:54;11.40;99.90
21353;DHT22;10834;52.268;6.770;2023-03-23T02:54:47;11.40;99.90
21353;DHT22;10834;52.268;6.770;2023-03-23T02:57:34;11.40;99.90
21353;DHT22;10834;52.268;6.770;2023-03-23T03:00:23;11.50;99.90
21353;DHT22;10834;52.268;6.770;2023-03-23T03:03:13;11.50;99.90
21353;DHT22;10834;52.268;6.770;2023-03-23T03:06:25;11.50;99.90
21353;DHT22;10834;52.268;6.770;2023-03-23T03:09:29;11.40;99.90
21353;DHT22;10834;52.268;6.770;2023-03-23T03:15:45;11.50;99.90
21353;DHT22;10834;52.268;6.770;2023-03-23T03:18:54;11.50;99.90
21353;DHT22;10834;52.268;6.770;2023-03-23T03:21:44;11.50;99.90
21353;DHT22;10834;52.268;6.770;2023-03-23T03:24:31;11.50;99.90
21353;DHT22;10834;52.268;6.770;2023-03-23T03:27:19;11.60;99.90
21353;DHT22;10834;52.268;6.770;2023-03-23T03:30:09;11.60;99.90
21353;DHT22;10834;52.268;6.770;2023-03-23T03:32:57;11.50;99.90
21353;DHT22;10834;52.268;6.770;2023-03-23T03:35:49;11.60;99.90
21353;DHT22;10834;52.268;6.770;2023-03-23T03:38:43;11.60;99.90
21353;DHT22;10834;52.268;6.770;2023-03-23T03:41:30;11.60;99.90
21353;DHT22;10834;52.268;6.770;2023-03-23T03:44:16;11.60;99.90
21353;DHT22;10834;52.268;6.770;2023-03-23T03:47:02;11.70;99.90
21353;DHT22;10834;52.268;6.770;2023-03-23T03:49:48;11.70;99.90
21353;DHT22;10834;52.268;6.770;2023-03-23T03:52:34;11.70;99.90
21353;DHT22;10834;52.268;6.770;2023-03-23T03:55:21;11.70;99.90
21353;DHT22;10834;52.268;6.770;2023-03-23T03:58:08;11.70;99.90
21353;DHT22;10834;52.268;6.770;2023-03-23T04:00:54;11.70;99.90
21353;DHT22;10834;52.268;6.770;2023-03-23T04:03:42;11.80;99.90
21353;DHT22;10834;52.268;6.770;2023-03-23T04:06:28;11.70;99.90
21353;DHT22;10834;52.268;6.770;2023-03-23T04:09:14;11.70;99.90
21353;DHT22;10834;52.268;6.770;2023-03-23T04:12:00;11.70;99.90
21353;DHT22;10834;52.268;6.770;2023-03-23T04:14:46;11.70;99.90
21353;DHT22;10834;52.268;6.770;2023-03-23T04:17:33;11.70;99.90
21353;DHT22;10834;52.268;6.770;2023-03-23T04:20:19;11.80;99.90
21353;DHT22;10834;52.268;6.770;2023-03-23T04:23:05;11.80;99.90
21353;DHT22;10834;52.268;6.770;2023-03-23T04:25:52;11.80;99.90
21353;DHT22;10834;52.268;6.770;2023-03-23T04:28:42;11.80;99.90
21353;DHT22;10834;52.268;6.770;2023-03-23T04:31:29;11.80;99.90
21353;DHT22;10834;52.268;6.770;2023-03-23T04:34:15;11.80;99.90
21353;DHT22;10834;52.268;6.770;2023-03-23T04:37:01;11.70;99.90
21353;DHT22;10834;52.268;6.770;2023-03-23T04:39:47;11.70;99.90
21353;DHT22;10834;52.268;6.770;2023-03-23T04:42:33;11.60;99.90
21353;DHT22;10834;52.268;6.770;2023-03-23T04:45:21;11.60;99.90
21353;DHT22;10834;52.268;6.770;2023-03-23T04:48:08;11.60;99.90
21353;DHT22;10834;52.268;6.770;2023-03-23T04:50:54;11.70;99.90
21353;DHT22;10834;52.268;6.770;2023-03-23T04:53:40;11.60;99.90
21353;DHT22;10834;52.268;6.770;2023-03-23T04:56:26;11.60;99.90
21353;DHT22;10834;52.268;6.770;2023-03-23T04:59:12;11.60;99.90
21353;DHT22;10834;52.268;6.770;2023-03-23T05:01:59;11.60;99.90
21353;DHT22;10834;52.268;6.770;2023-03-23T05:04:45;11.60;99.90
21353;DHT22;10834;52.268;6.770;2023-03-23T05:07:31;11.70;99.90
21353;DHT22;10834;52.268;6.770;2023-03-23T05:10:17;11.70;99.90
21353;DHT22;10834;52.268;6.770;2023-03-23T05:13:04;11.70;99.90
21353;DHT22;10834;52.268;6.770;2023-03-23T05:15:50;11.80;99.90
21353;DHT22;10834;52.268;6.770;2023-03-23T05:18:36;11.80;99.90
21353;DHT22;10834;52.268;6.770;2023-03-23T05:21:22;11.80;99.90
21353;DHT22;10834;52.268;6.770;2023-03-23T05:24:08;11.80;99.90
21353;DHT22;10834;52.268;6.770;2023-03-23T05:26:54;11.80;99.90
21353;DHT22;10834;52.268;6.770;2023-03-23T05:29:41;11.80;99.90
21353;DHT22;10834;52.268;6.770;2023-03-23T05:32:27;11.90;99.90
21353;DHT22;10834;52.268;6.770;2023-03-23T05:35:14;11.90;99.90
21353;DHT22;10834;52.268;6.770;2023-03-23T05:38:01;11.90;99.90
21353;DHT22;10834;52.268;6.770;2023-03-23T05:40:47;11.90;99.90
21353;DHT22;10834;52.268;6.770;2023-03-23T05:43:34;11.90;99.90
21353;DHT22;10834;52.268;6.770;2023-03-23T05:46:20;11.90;99.90
21353;DHT22;10834;52.268;6.770;2023-03-23T05:49:07;11.90;99.90
21353;DHT22;10834;52.268;6.770;2023-03-23T05:51:53;11.90;99.90
21353;DHT22;10834;52.268;6.770;2023-03-23T05:54:39;11.90;99.90
21353;DHT22;10834;52.268;6.770;2023-03-23T05:57:25;12.00;99.90
21353;DHT22;10834;52.268;6.770;2023-03-23T06:00:11;12.00;99.90
21353;DHT22;10834;52.268;6.770;2023-03-23T06:03:05;12.00;99.90
21353;DHT22;10834;52.268;6.770;2023-03-23T06:05:51;12.00;99.90
21353;DHT22;10834;52.268;6.770;2023-03-23T06:08:38;12.00;99.90
21353;DHT22;10834;52.268;6.770;2023-03-23T06:11:25;12.00;99.90
21353;DHT22;10834;52.268;6.770;2023-03-23T06:14:11;12.10;99.90
21353;DHT22;10834;52.268;6.770;2023-03-23T06:16:58;12.10;99.90
21353;DHT22;10834;52.268;6.770;2023-03-23T06:19:44;12.10;99.90
21353;DHT22;10834;52.268;6.770;2023-03-23T06:22:39;12.10;99.90
21353;DHT22;10834;52.268;6.770;2023-03-23T06:25:25;12.10;99.90
21353;DHT22;10834;52.268;6.770;2023-03-23T06:28:11;12.20;99.90
21353;DHT22;10834;52.268;6.770;2023-03-23T06:31:05;12.20;99.90
21353;DHT22;10834;52.268;6.770;2023-03-23T06:33:52;12.20;99.90
21353;DHT22;10834;52.268;6.770;2023-03-23T06:36:38;12.30;99.90
21353;DHT22;10834;52.268;6.770;2023-03-23T06:39:24;12.40;99.90
21353;DHT22;10834;52.268;6.770;2023-03-23T06:42:11;12.40;99.90
21353;DHT22;10834;52.268;6.770;2023-03-23T06:44:57;12.50;99.90
21353;DHT22;10834;52.268;6.770;2023-03-23T06:47:46;12.60;99.90
21353;DHT22;10834;52.268;6.770;2023-03-23T06:50:34;12.70;99.90
21353;DHT22;10834;52.268;6.770;2023-03-23T06:53:20;12.80;99.90
21353;DHT22;10834;52.268;6.770;2023-03-23T06:56:06;12.80;99.90
21353;DHT22;10834;52.268;6.770;2023-03-23T06:58:53;12.90;99.90
21353;DHT22;10834;52.268;6.770;2023-03-23T07:01:39;12.80;99.90
21353;DHT22;10834;52.268;6.770;2023-03-23T07:04:25;12.80;99.90
21353;DHT22;10834;52.268;6.770;2023-03-23T07:07:11;12.80;99.90
21353;DHT22;10834;52.268;6.770;2023-03-23T07:10:00;12.80;99.90
21353;DHT22;10834;52.268;6.770;2023-03-23T07:12:46;12.80;99.90
21353;DHT22;10834;52.268;6.770;2023-03-23T07:15:32;12.90;99.90
21353;DHT22;10834;52.268;6.770;2023-03-23T07:18:18;13.00;99.90
21353;DHT22;10834;52.268;6.770;2023-03-23T07:21:04;13.00;99.90
21353;DHT22;10834;52.268;6.770;2023-03-23T07:23:50;13.00;99.90
21353;DHT22;10834;52.268;6.770;2023-03-23T07:26:36;12.90;99.90
21353;DHT22;10834;52.268;6.770;2023-03-23T07:29:23;12.80;99.90
21353;DHT22;10834;52.268;6.770;2023-03-23T07:32:11;12.70;99.90
21353;DHT22;10834;52.268;6.770;2023-03-23T07:34:57;12.70;99.90
21353;DHT22;10834;52.268;6.770;2023-03-23T07:37:43;12.60;99.90
21353;DHT22;10834;52.268;6.770;2023-03-23T07:40:31;12.50;99.90
21353;DHT22;10834;52.268;6.770;2023-03-23T07:43:19;12.50;99.90
21353;DHT22;10834;52.268;6.770;2023-03-23T07:46:06;12.50;99.90
21353;DHT22;10834;52.268;6.770;2023-03-23T07:48:52;12.50;99.90
21353;DHT22;10834;52.268;6.770;2023-03-23T07:51:38;12.60;99.90
21353;DHT22;10834;52.268;6.770;2023-03-23T07:54:24;12.60;99.90
21353;DHT22;10834;52.268;6.770;2023-03-23T07:57:10;12.50;99.90
21353;DHT22;10834;52.268;6.770;2023-03-23T07:59:58;12.60;99.90
21353;DHT22;10834;52.268;6.770;2023-03-23T08:02:46;12.60;99.90
21353;DHT22;10834;52.268;6.770;2023-03-23T08:05:32;12.70;99.90
21353;DHT22;10834;52.268;6.770;2023-03-23T08:08:19;13.00;99.90
21353;DHT22;10834;52.268;6.770;2023-03-23T08:11:06;13.20;99.90
21353;DHT22;10834;52.268;6.770;2023-03-23T08:13:52;13.20;99.90
21353;DHT22;10834;52.268;6.770;2023-03-23T08:16:38;13.30;99.90
21353;DHT22;10834;52.268;6.770;2023-03-23T08:19:25;13.30;99.90
21353;DHT22;10834;52.268;6.770;2023-03-23T08:22:12;13.20;99.90
21353;DHT22;10834;52.268;6.770;2023-03-23T08:24:58;13.20;99.90
21353;DHT22;10834;52.268;6.770;2023-03-23T08:27:46;13.20;99.90
21353;DHT22;10834;52.268;6.770;2023-03-23T08:30:32;13.20;99.90
21353;DHT22;10834;52.268;6.770;2023-03-23T08:33:19;13.10;99.90
21353;DHT22;10834;52.268;6.770;2023-03-23T08:36:07;13.00;99.90
21353;DHT22;10834;52.268;6.770;2023-03-23T08:38:54;13.00;99.90
21353;DHT22;10834;52.268;6.770;2023-03-23T08:41:41;12.90;99.90
21353;DHT22;10834;52.268;6.770;2023-03-23T08:44:27;12.80;99.90
21353;DHT22;10834;52.268;6.770;2023-03-23T08:47:13;12.90;99.90
21353;DHT22;10834;52.268;6.770;2023-03-23T08:49:59;12.90;99.90
21353;DHT22;10834;52.268;6.770;2023-03-23T08:52:46;13.10;99.90
21353;DHT22;10834;52.268;6.770;2023-03-23T08:55:32;13.20;99.90
21353;DHT22;10834;52.268;6.770;2023-03-23T08:58:18;13.30;99.90
21353;DHT22;10834;52.268;6.770;2023-03-23T09:01:06;13.40;99.90
21353;DHT22;10834;52.268;6.770;2023-03-23T09:03:52;13.60;99.90
21353;DHT22;10834;52.268;6.770;2023-03-23T09:06:39;13.70;99.90
21353;DHT22;10834;52.268;6.770;2023-03-23T09:09:25;13.70;99.90
21353;DHT22;10834;52.268;6.770;2023-03-23T09:12:11;13.70;99.90
21353;DHT22;10834;52.268;6.770;2023-03-23T09:14:57;13.70;99.90
21353;DHT22;10834;52.268;6.770;2023-03-23T09:17:46;13.60;99.90
21353;DHT22;10834;52.268;6.770;2023-03-23T09:20:32;13.60;99.90
21353;DHT22;10834;52.268;6.770;2023-03-23T09:23:18;13.50;99.90
21353;DHT22;10834;52.268;6.770;2023-03-23T09:26:06;13.50;99.90
21353;DHT22;10834;52.268;6.770;2023-03-23T09:28:52;13.60;99.90
21353;DHT22;10834;52.268;6.770;2023-03-23T09:31:39;13.50;99.90
21353;DHT22;10834;52.268;6.770;2023-03-23T09:34:27;13.50;99.90
21353;DHT22;10834;52.268;6.770;2023-03-23T09:37:15;13.60;99.90
21353;DHT22;10834;52.268;6.770;2023-03-23T09:40:02;13.60;99.90
21353;DHT22;10834;52.268;6.770;2023-03-23T09:43:29;13.60;99.90
21353;DHT22;10834;52.268;6.770;2023-03-23T09:49:47;13.70;99.90
21353;DHT22;10834;52.268;6.770;2023-03-23T09:52:43;13.60;99.90
21353;DHT22;10834;52.268;6.770;2023-03-23T09:55:30;13.70;99.90
21353;DHT22;10834;52.268;6.770;2023-03-23T10:01:25;14.00;99.90
21353;DHT22;10834;52.268;6.770;2023-03-23T10:04:39;14.30;99.90
21353;DHT22;10834;52.268;6.770;2023-03-23T10:07:27;14.60;99.90
21353;DHT22;10834;52.268;6.770;2023-03-23T10:10:14;15.00;99.90
21353;DHT22;10834;52.268;6.770;2023-03-23T10:13:07;15.10;99.90
21353;DHT22;10834;52.268;6.770;2023-03-23T10:15:55;15.00;99.90
21353;DHT22;10834;52.268;6.770;2023-03-23T10:18:58;15.20;99.90
21353;DHT22;10834;52.268;6.770;2023-03-23T10:21:51;15.50;99.90
21353;DHT22;10834;52.268;6.770;2023-03-23T10:24:50;15.40;99.90
21353;DHT22;10834;52.268;6.770;2023-03-23T10:30:38;16.00;99.90
21353;DHT22;10834;52.268;6.770;2023-03-23T10:33:36;17.30;99.90
21353;DHT22;10834;52.268;6.770;2023-03-23T10:39:44;18.90;99.90
21353;DHT22;10834;52.268;6.770;2023-03-23T10:42:36;19.40;98.70
21353;DHT22;10834;52.268;6.770;2023-03-23T10:45:26;20.40;91.90
21353;DHT22;10834;52.268;6.770;2023-03-23T10:48:28;21.70;79.20
21353;DHT22;10834;52.268;6.770;2023-03-23T10:51:19;22.50;70.30
21353;DHT22;10834;52.268;6.770;2023-03-23T10:54:06;22.80;61.50
21353;DHT22;10834;52.268;6.770;2023-03-23T10:56:53;21.50;64.00
21353;DHT22;10834;52.268;6.770;2023-03-23T10:59:40;20.70;69.00
21353;DHT22;10834;52.268;6.770;2023-03-23T11:02:27;20.90;72.70
21353;DHT22;10834;52.268;6.770;2023-03-23T11:08:00;19.40;79.00
21353;DHT22;10834;52.268;6.770;2023-03-23T11:13:42;20.90;72.00
21353;DHT22;10834;52.268;6.770;2023-03-23T11:16:32;22.00;67.10
21353;DHT22;10834;52.268;6.770;2023-03-23T11:19:26;22.60;60.90
21353;DHT22;10834;52.268;6.770;2023-03-23T11:22:31;21.80;59.30
21353;DHT22;10834;52.268;6.770;2023-03-23T11:25:17;21.40;59.80
21353;DHT22;10834;52.268;6.770;2023-03-23T11:28:03;21.50;59.20
21353;DHT22;10834;52.268;6.770;2023-03-23T11:30:53;21.80;60.40
21353;DHT22;10834;52.268;6.770;2023-03-23T11:34:00;20.80;59.30
21353;DHT22;10834;52.268;6.770;2023-03-23T11:36:57;21.20;63.70
21353;DHT22;10834;52.268;6.770;2023-03-23T11:43:18;20.80;63.20
21353;DHT22;10834;52.268;6.770;2023-03-23T11:46:36;20.20;65.50
21353;DHT22;10834;52.268;6.770;2023-03-23T11:49:41;19.40;69.00
21353;DHT22;10834;52.268;6.770;2023-03-23T11:58:20;18.80;74.90
21353;DHT22;10834;52.268;6.770;2023-03-23T12:01:27;18.90;75.50
21353;DHT22;10834;52.268;6.770;2023-03-23T12:10:24;19.00;71.30
21353;DHT22;10834;52.268;6.770;2023-03-23T12:28:25;18.90;67.60
21353;DHT22;10834;52.268;6.770;2023-03-23T12:34:53;18.80;71.50
21353;DHT22;10834;52.268;6.770;2023-03-23T12:38:03;18.90;69.90
21353;DHT22;10834;52.268;6.770;2023-03-23T12:41:26;18.70;70.30
21353;DHT22;10834;52.268;6.770;2023-03-23T12:44:14;18.20;73.90
21353;DHT22;10834;52.268;6.770;2023-03-23T12:50:20;17.70;76.90
21353;DHT22;10834;52.268;6.770;2023-03-23T12:53:20;17.50;79.50
21353;DHT22;10834;52.268;6.770;2023-03-23T12:56:18;17.60;82.40
21353;DHT22;10834;52.268;6.770;2023-03-23T12:59:32;17.70;83.00
21353;DHT22;10834;52.268;6.770;2023-03-23T13:02:31;17.70;83.30
21353;DHT22;10834;52.268;6.770;2023-03-23T13:08:15;17.50;81.70
21353;DHT22;10834;52.268;6.770;2023-03-23T13:11:10;17.20;82.60
21353;DHT22;10834;52.268;6.770;2023-03-23T13:23:35;16.20;95.60
21353;DHT22;10834;52.268;6.770;2023-03-23T13:26:12;16.20;95.80
21353;DHT22;10834;52.268;6.770;2023-03-23T13:29:01;16.40;97.50
21353;DHT22;10834;52.268;6.770;2023-03-23T13:32:06;16.70;97.60
21353;DHT22;10834;52.268;6.770;2023-03-23T13:34:52;16.90;97.80
21353;DHT22;10834;52.268;6.770;2023-03-23T13:37:45;16.80;98.50
21353;DHT22;10834;52.268;6.770;2023-03-23T13:40:32;16.70;99.90
21353;DHT22;10834;52.268;6.770;2023-03-23T13:43:32;16.50;99.90
21353;DHT22;10834;52.268;6.770;2023-03-23T13:49:19;15.70;99.90
21353;DHT22;10834;52.268;6.770;2023-03-23T13:55:40;14.90;99.90
21353;DHT22;10834;52.268;6.770;2023-03-23T13:58:27;14.30;99.90
21353;DHT22;10834;52.268;6.770;2023-03-23T14:01:16;13.90;99.90
21353;DHT22;10834;52.268;6.770;2023-03-23T14:04:10;13.70;99.90
21353;DHT22;10834;52.268;6.770;2023-03-23T14:06:57;13.50;99.90
21353;DHT22;10834;52.268;6.770;2023-03-23T14:09:44;13.50;99.90
21353;DHT22;10834;52.268;6.770;2023-03-23T14:12:31;13.40;99.90
21353;DHT22;10834;52.268;6.770;2023-03-23T14:15:18;13.20;99.90
21353;DHT22;10834;52.268;6.770;2023-03-23T14:18:04;13.20;99.90
21353;DHT22;10834;52.268;6.770;2023-03-23T14:20:51;13.40;99.90
21353;DHT22;10834;52.268;6.770;2023-03-23T14:23:37;13.60;99.90
21353;DHT22;10834;52.268;6.770;2023-03-23T14:26:23;13.70;99.90
21353;DHT22;10834;52.268;6.770;2023-03-23T14:29:11;13.80;99.90
21353;DHT22;10834;52.268;6.770;2023-03-23T14:31:58;13.80;99.90
21353;DHT22;10834;52.268;6.770;2023-03-23T14:34:47;14.00;99.90
21353;DHT22;10834;52.268;6.770;2023-03-23T14:37:33;14.20;99.90
21353;DHT22;10834;52.268;6.770;2023-03-23T14:40:21;14.10;99.90
21353;DHT22;10834;52.268;6.770;2023-03-23T14:43:10;14.00;99.90
21353;DHT22;10834;52.268;6.770;2023-03-23T14:46:00;13.90;99.90
21353;DHT22;10834;52.268;6.770;2023-03-23T14:48:47;13.70;99.90
21353;DHT22;10834;52.268;6.770;2023-03-23T14:51:33;13.60;99.90
21353;DHT22;10834;52.268;6.770;2023-03-23T14:54:27;13.60;99.90
21353;DHT22;10834;52.268;6.770;2023-03-23T15:00:02;13.90;99.90
21353;DHT22;10834;52.268;6.770;2023-03-23T15:02:54;13.90;99.90
21353;DHT22;10834;52.268;6.770;2023-03-23T15:05:45;13.90;99.90
21353;DHT22;10834;52.268;6.770;2023-03-23T15:08:33;14.00;99.90
21353;DHT22;10834;52.268;6.770;2023-03-23T15:11:27;14.00;99.90
21353;DHT22;10834;52.268;6.770;2023-03-23T15:14:20;14.00;99.90
21353;DHT22;10834;52.268;6.770;2023-03-23T15:17:17;14.10;99.90
21353;DHT22;10834;52.268;6.770;2023-03-23T15:20:19;14.10;99.90
21353;DHT22;10834;52.268;6.770;2023-03-23T15:23:06;13.90;99.90
21353;DHT22;10834;52.268;6.770;2023-03-23T15:25:55;13.80;99.90
21353;DHT22;10834;52.268;6.770;2023-03-23T15:28:42;13.70;99.90
21353;DHT22;10834;52.268;6.770;2023-03-23T15:31:28;13.80;99.90
21353;DHT22;10834;52.268;6.770;2023-03-23T15:34:34;13.70;99.90
21353;DHT22;10834;52.268;6.770;2023-03-23T15:37:30;13.80;99.90
21353;DHT22;10834;52.268;6.770;2023-03-23T15:40:22;13.80;99.90
21353;DHT22;10834;52.268;6.770;2023-03-23T15:43:16;13.80;99.90
21353;DHT22;10834;52.268;6.770;2023-03-23T15:46:19;13.70;99.90
21353;DHT22;10834;52.268;6.770;2023-03-23T15:49:08;13.70;99.90
21353;DHT22;10834;52.268;6.770;2023-03-23T15:51:56;13.80;99.90
21353;DHT22;10834;52.268;6.770;2023-03-23T15:54:47;13.70;99.90
21353;DHT22;10834;52.268;6.770;2023-03-23T15:57:33;13.70;99.90
21353;DHT22;10834;52.268;6.770;2023-03-23T16:00:22;13.50;99.90
21353;DHT22;10834;52.268;6.770;2023-03-23T16:03:12;13.40;99.90
21353;DHT22;10834;52.268;6.770;2023-03-23T16:05:59;13.30;99.90
21353;DHT22;10834;52.268;6.770;2023-03-23T16:08:47;13.10;99.90
21353;DHT22;10834;52.268;6.770;2023-03-23T16:11:33;13.00;99.90
21353;DHT22;10834;52.268;6.770;2023-03-23T16:14:20;13.00;99.90
21353;DHT22;10834;52.268;6.770;2023-03-23T16:17:08;12.90;99.90
21353;DHT22;10834;52.268;6.770;2023-03-23T16:19:55;12.90;99.90
21353;DHT22;10834;52.268;6.770;2023-03-23T16:22:41;12.90;99.90
21353;DHT22;10834;52.268;6.770;2023-03-23T16:25:27;13.00;99.90
21353;DHT22;10834;52.268;6.770;2023-03-23T16:28:14;13.00;99.90
21353;DHT22;10834;52.268;6.770;2023-03-23T16:31:01;13.00;99.90
21353;DHT22;10834;52.268;6.770;2023-03-23T16:33:47;12.90;99.90
21353;DHT22;10834;52.268;6.770;2023-03-23T16:36:33;12.90;99.90
21353;DHT22;10834;52.268;6.770;2023-03-23T16:39:19;12.90;99.90
21353;DHT22;10834;52.268;6.770;2023-03-23T16:42:05;13.00;99.90
21353;DHT22;10834;52.268;6.770;2023-03-23T16:44:52;13.00;99.90
21353;DHT22;10834;52.268;6.770;2023-03-23T16:47:40;13.10;99.90
21353;DHT22;10834;52.268;6.770;2023-03-23T16:50:27;13.00;99.90
21353;DHT22;10834;52.268;6.770;2023-03-23T16:53:14;12.90;99.90
21353;DHT22;10834;52.268;6.770;2023-03-23T16:56:01;12.90;99.90
21353;DHT22;10834;52.268;6.770;2023-03-23T16:58:47;12.80;99.90
21353;DHT22;10834;52.268;6.770;2023-03-23T17:01:33;12.70;99.90
21353;DHT22;10834;52.268;6.770;2023-03-23T17:04:19;12.60;99.90
21353;DHT22;10834;52.268;6.770;2023-03-23T17:07:05;12.60;99.90
21353;DHT22;10834;52.268;6.770;2023-03-23T17:09:51;12.50;99.90
21353;DHT22;10834;52.268;6.770;2023-03-23T17:12:37;12.50;99.90
21353;DHT22;10834;52.268;6.770;2023-03-23T17:15:23;12.50;99.90
21353;DHT22;10834;52.268;6.770;2023-03-23T17:18:10;12.50;99.90
21353;DHT22;10834;52.268;6.770;2023-03-23T17:20:57;12.50;99.90
21353;DHT22;10834;52.268;6.770;2023-03-23T17:23:43;12.50;99.90
21353;DHT22;10834;52.268;6.770;2023-03-23T17:26:29;12.50;99.90
21353;DHT22;10834;52.268;6.770;2023-03-23T17:29:15;12.40;99.90
21353;DHT22;10834;52.268;6.770;2023-03-23T17:32:01;12.40;99.90
21353;DHT22;10834;52.268;6.770;2023-03-23T17:34:47;12.40;99.90
21353;DHT22;10834;52.268;6.770;2023-03-23T17:37:34;12.40;99.90
21353;DHT22;10834;52.268;6.770;2023-03-23T17:40:21;12.30;99.90
21353;DHT22;10834;52.268;6.770;2023-03-23T17:43:06;12.30;99.90
21353;DHT22;10834;52.268;6.770;2023-03-23T17:45:52;12.30;99.90
21353;DHT22;10834;52.268;6.770;2023-03-23T17:48:39;12.20;99.90
21353;DHT22;10834;52.268;6.770;2023-03-23T17:51:25;12.20;99.90
21353;DHT22;10834;52.268;6.770;2023-03-23T17:54:11;12.20;99.90
21353;DHT22;10834;52.268;6.770;2023-03-23T17:56:57;12.10;99.90
21353;DHT22;10834;52.268;6.770;2023-03-23T17:59:43;12.10;99.90
21353;DHT22;10834;52.268;6.770;2023-03-23T18:02:29;12.00;99.90
21353;DHT22;10834;52.268;6.770;2023-03-23T18:05:15;12.00;99.90
21353;DHT22;10834;52.268;6.770;2023-03-23T18:08:01;12.00;99.90
21353;DHT22;10834;52.268;6.770;2023-03-23T18:10:48;12.00;99.90
21353;DHT22;10834;52.268;6.770;2023-03-23T18:13:35;12.00;99.90
21353;DHT22;10834;52.268;6.770;2023-03-23T18:16:21;12.00;99.90
21353;DHT22;10834;52.268;6.770;2023-03-23T18:19:07;12.00;99.90
21353;DHT22;10834;52.268;6.770;2023-03-23T18:21:54;12.00;99.90
21353;DHT22;10834;52.268;6.770;2023-03-23T18:24:40;11.90;99.90
21353;DHT22;10834;52.268;6.770;2023-03-23T18:27:26;11.90;99.90
21353;DHT22;10834;52.268;6.770;2023-03-23T18:30:12;11.90;99.90
21353;DHT22;10834;52.268;6.770;2023-03-23T18:32:58;11.90;99.90
21353;DHT22;10834;52.268;6.770;2023-03-23T18:35:45;11.90;99.90
21353;DHT22;10834;52.268;6.770;2023-03-23T18:38:31;11.90;99.90
21353;DHT22;10834;52.268;6.770;2023-03-23T18:41:18;11.90;99.90
21353;DHT22;10834;52.268;6.770;2023-03-23T18:44:04;11.90;99.90
21353;DHT22;10834;52.268;6.770;2023-03-23T18:46:51;12.00;99.90
21353;DHT22;10834;52.268;6.770;2023-03-23T18:49:37;12.00;99.90
21353;DHT22;10834;52.268;6.770;2023-03-23T18:52:23;12.00;99.90
21353;DHT22;10834;52.268;6.770;2023-03-23T18:55:11;11.90;99.90
21353;DHT22;10834;52.268;6.770;2023-03-23T18:57:57;11.90;99.90
21353;DHT22;10834;52.268;6.770;2023-03-23T19:00:45;11.90;99.90
21353;DHT22;10834;52.268;6.770;2023-03-23T19:03:33;12.00;99.90
21353;DHT22;10834;52.268;6.770;2023-03-23T19:06:22;12.00;99.90
21353;DHT22;10834;52.268;6.770;2023-03-23T19:09:09;12.00;99.90
21353;DHT22;10834;52.268;6.770;2023-03-23T19:11:55;12.00;99.90
21353;DHT22;10834;52.268;6.770;2023-03-23T19:14:41;12.10;99.90
21353;DHT22;10834;52.268;6.770;2023-03-23T19:17:27;12.00;99.90
21353;DHT22;10834;52.268;6.770;2023-03-23T19:20:13;12.10;99.90
21353;DHT22;10834;52.268;6.770;2023-03-23T19:22:59;12.00;99.90